KTRK

Truckee-Tahoe Airport

Truckee, California, USA
KTRK 181730Z 1818/1918 VRB04KT P6SM VCSH SCT025 OVC040 FM182200 20006KT 6SM -SN SCT020 OVC035 FM190100 VRB04KT 3SM -SN SCT006 OVC010 FM190500 VRB03KT P6SM VCSH SCT012 OVC025
Issued Valid From Valid To
Jan-18 @ 17:30 UTC
(3 hours ago)
Jan-18 @ 18:00 UTC
(2 hours ago)
Jan-19 @ 18:00 UTC
(in 22 hours)
Jan-18 @ 18:00 to Jan-18 @ 22:00
KTRK 181730Z 1818/1918 VRB04KT P6SM VCSH SCT025 OVC040
Wind Visibility Clouds
Variable at 4 knots Greater than 6 miles
  • Scattered at 2,500' AGL
  • Overcast at 4,000' AGL
From Jan-18 @ 22:00 to Jan-19 @ 01:00
FM182200 20006KT 6SM -SN SCT020 OVC035
Wind Visibility Clouds Conditions
200° at 6 knots 6 miles
  • Scattered at 2,000' AGL
  • Overcast at 3,500' AGL
  • Light Snow
From Jan-19 @ 01:00 to Jan-19 @ 05:00
FM190100 VRB04KT 3SM -SN SCT006 OVC010
Wind Visibility Clouds Conditions
Variable at 4 knots 3 miles
  • Scattered at 600' AGL
  • Overcast at 1,000' AGL
  • Light Snow
From Jan-19 @ 05:00 to Jan-19 @ 18:00
FM190500 VRB03KT P6SM VCSH SCT012 OVC025
Wind Visibility Clouds
Variable at 3 knots Greater than 6 miles
  • Scattered at 1,200' AGL
  • Overcast at 2,500' AGL
KTRK 181730Z 1818/1918 VRB04KT P6SM VCSH SCT025 OVC040 FM182200 20006KT 6SM -SN SCT020 OVC035 FM190100 VRB04KT 3SM -SN SCT006 OVC010 FM190500 VRB03KT P6SM VCSH SCT012 OVC025
Issued Jan-18 @ 17:30 UTC
(3 hours ago)
Valid From Jan-18 @ 18:00 UTC
(2 hours ago)
Valid To Jan-19 @ 18:00 UTC
(in 22 hours)
Jan-18 @ 18:00 - Jan-18 @ 22:00
Wind Visibility
Variable at 4 knots Greater than 6 miles
Clouds
  • Scattered at 2,500' AGL
  • Overcast at 4,000' AGL
From Jan-18 @ 22:00 - Jan-19 @ 01:00
Wind Visibility
200° at 6 knots 6 miles
Clouds
  • Scattered at 2,000' AGL
  • Overcast at 3,500' AGL
Conditions
  • Light Snow
From Jan-19 @ 01:00 - Jan-19 @ 05:00
Wind Visibility
Variable at 4 knots 3 miles
Clouds
  • Scattered at 600' AGL
  • Overcast at 1,000' AGL
Conditions
  • Light Snow
From Jan-19 @ 05:00 - Jan-19 @ 18:00
Wind Visibility
Variable at 3 knots Greater than 6 miles
Clouds
  • Scattered at 1,200' AGL
  • Overcast at 2,500' AGL